Time;durP1;ratioP1;P1;durP2;ratioP2;P2;SDS_P1;SDS_P2;PMS_P1;PMS_P2;Temp;Humidity;BMP_temperature;BMP_pressure;BME280_temperature;BME280_humidity;BME280_pressure;Samples;Min_cycle;Max_cycle;Signal;HPM_P1;HPM_P2
2021/05/19 00:00:56;;;;;;;0.20;0.20;;;;;;;11.24;71.30;97184.93;1641508;86;21508;-62
2021/05/19 00:03:24;;;;;;;0.30;0.30;;;;;;;11.20;70.99;97182.34;1641581;87;21123;-62
2021/05/19 00:05:51;;;;;;;1.02;0.50;;;;;;;11.15;70.67;97183.31;1641423;86;21588;-63
2021/05/19 00:08:18;;;;;;;0.35;0.35;;;;;;;11.11;71.30;97185.91;1641349;87;21626;-62
2021/05/19 00:10:44;;;;;;;1.47;0.60;;;;;;;11.05;71.75;97184.77;1641475;86;21147;-63
2021/05/19 00:13:11;;;;;;;0.50;0.33;;;;;;;11.01;71.53;97187.89;1641557;87;21124;-62
2021/05/19 00:15:38;;;;;;;0.70;0.40;;;;;;;10.93;72.54;97185.59;1641444;86;21655;-62
2021/05/19 00:18:06;;;;;;;0.50;0.50;;;;;;;10.86;72.40;97192.42;1641592;87;21071;-63
2021/05/19 00:20:33;;;;;;;1.50;0.60;;;;;;;10.78;74.30;97195.02;1641583;86;21635;-65
2021/05/19 00:23:00;;;;;;;0.82;0.50;;;;;;;10.73;73.56;97194.72;1641556;87;21059;-63
2021/05/19 00:25:27;;;;;;;2.37;0.90;;;;;;;10.68;73.17;97186.59;1641424;85;21099;-60
2021/05/19 00:27:55;;;;;;;1.30;0.70;;;;;;;10.62;73.56;97178.64;1641736;87;21092;-61
2021/05/19 00:30:22;;;;;;;0.93;0.55;;;;;;;10.57;72.83;97186.91;1641507;86;21101;-62
2021/05/19 00:32:49;;;;;;;0.30;0.30;;;;;;;10.51;73.07;97186.24;1641472;87;21194;-60
2021/05/19 00:35:16;;;;;;;0.60;0.50;;;;;;;10.44;73.41;97191.27;1641663;85;21158;-66
2021/05/19 00:37:43;;;;;;;0.57;0.50;;;;;;;10.38;74.16;97193.70;1641714;87;21103;-61
2021/05/19 00:40:13;;;;;;;0.53;0.47;;;;;;;10.32;73.54;97194.33;1641813;86;21051;-61
2021/05/19 00:42:40;;;;;;;0.80;0.42;;;;;;;10.24;75.14;97199.02;1641830;87;21091;-62
2021/05/19 00:45:09;;;;;;;0.80;0.50;;;;;;;10.20;76.35;97204.20;1641840;86;21182;-63
2021/05/19 00:47:43;;;;;;;0.47;0.47;;;;;;;10.14;77.55;97192.32;1645305;86;21048;-62
2021/05/19 00:50:15;;;;;;;1.50;0.55;;;;;;;10.11;76.89;97192.64;1636822;85;21160;-61
2021/05/19 00:52:42;;;;;;;0.95;0.53;;;;;;;9.99;76.39;97177.38;1634570;87;21627;-62
2021/05/19 00:55:11;;;;;;;0.33;0.33;;;;;;;10.05;75.70;97185.00;1634774;88;21215;-62
2021/05/19 00:57:40;;;;;;;0.47;0.47;;;;;;;10.03;75.38;97184.84;1635104;88;21682;-62
2021/05/19 01:00:14;;;;;;;0.50;0.50;;;;;;;9.99;76.49;97189.53;1635079;88;21075;-62
2021/05/19 01:02:44;;;;;;;0.53;0.40;;;;;;;9.95;75.91;97192.11;1634218;86;21076;-61
2021/05/19 01:05:40;;;;;;;0.50;0.50;;;;;;;9.93;76.99;97192.73;1634944;88;21186;-61
2021/05/19 01:10:53;;;;;;;0.50;0.47;;;;;;;9.87;76.08;97201.97;1639860;87;21091;-62
2021/05/19 01:13:21;;;;;;;0.50;0.35;;;;;;;9.85;75.72;97209.08;1654392;85;21209;-62
2021/05/19 01:15:49;;;;;;;0.65;0.50;;;;;;;9.81;75.46;97199.17;1642584;85;21095;-62
2021/05/19 01:18:16;;;;;;;0.60;0.50;;;;;;;9.82;74.87;97199.03;1644646;86;21072;-62
2021/05/19 01:20:43;;;;;;;1.20;0.40;;;;;;;9.80;75.41;97203.58;1643503;86;21567;-62
2021/05/19 01:23:10;;;;;;;0.85;0.40;;;;;;;9.79;74.42;97198.53;1648537;86;21129;-62
2021/05/19 01:25:38;;;;;;;0.72;0.57;;;;;;;9.78;74.77;97199.48;1647336;87;21183;-62
2021/05/19 01:28:07;;;;;;;3.10;0.42;;;;;;;9.77;75.80;97199.97;1637689;87;21584;-62
2021/05/19 01:30:36;;;;;;;0.62;0.53;;;;;;;9.76;75.50;97206.14;1641952;86;21056;-62
2021/05/19 01:33:04;;;;;;;0.35;0.35;;;;;;;9.76;75.96;97210.52;1634931;87;21575;-62
2021/05/19 01:35:32;;;;;;;0.80;0.50;;;;;;;9.77;76.96;97213.41;1632879;86;21134;-62
2021/05/19 01:38:00;;;;;;;0.57;0.47;;;;;;;9.79;77.52;97211.02;1647429;87;21089;-62
2021/05/19 01:40:28;;;;;;;1.15;0.60;;;;;;;9.83;76.42;97218.00;1641569;86;21532;-62
2021/05/19 01:42:56;;;;;;;0.65;0.53;;;;;;;9.85;76.54;97215.56;1642492;86;21151;-62
2021/05/19 01:45:41;;;;;;;0.65;0.65;;;;;;;9.86;77.27;97210.72;1634969;86;21139;-61
2021/05/19 01:48:12;;;;;;;1.15;0.65;;;;;;;9.89;76.63;97206.98;1647366;87;21095;-61
2021/05/19 01:50:41;;;;;;;1.07;0.65;;;;;;;9.89;76.18;97211.69;1647168;87;21077;-61
2021/05/19 01:53:08;;;;;;;1.00;0.65;;;;;;;9.90;76.57;97208.14;1650405;86;21154;-61
2021/05/19 01:55:36;;;;;;;0.88;0.60;;;;;;;9.89;75.96;97205.69;1647218;87;21140;-61
2021/05/19 01:58:03;;;;;;;0.45;0.45;;;;;;;9.90;75.73;97213.80;1647484;87;21575;-62
2021/05/19 02:00:31;;;;;;;0.65;0.50;;;;;;;9.91;75.61;97216.73;1647393;87;21072;-62
2021/05/19 02:03:05;;;;;;;0.80;0.42;;;;;;;9.93;75.53;97208.30;1634227;87;21151;-62
2021/05/19 02:05:37;;;;;;;0.53;0.50;;;;;;;9.95;75.66;97208.48;1641626;87;21532;-62
2021/05/19 02:08:08;;;;;;;0.93;0.50;;;;;;;9.98;74.90;97213.36;1631185;88;21198;-62
2021/05/19 02:10:38;;;;;;;1.07;0.78;;;;;;;10.03;75.30;97213.38;1630919;87;21183;-62
2021/05/19 02:13:11;;;;;;;1.55;0.80;;;;;;;10.06;74.65;97211.75;1632440;87;21119;-62
2021/05/19 02:15:39;;;;;;;1.45;0.95;;;;;;;10.11;76.12;97208.21;1633009;88;21207;-62
2021/05/19 02:18:06;;;;;;;1.65;0.80;;;;;;;10.15;76.46;97212.14;1657374;85;21127;-61
2021/05/19 02:20:34;;;;;;;1.10;0.98;;;;;;;10.19;75.95;97209.08;1646683;85;21083;-62
2021/05/19 02:23:01;;;;;;;3.87;1.07;;;;;;;10.22;76.37;97202.27;1641223;85;21101;-61
2021/05/19 02:25:28;;;;;;;6.00;1.02;;;;;;;10.26;76.40;97202.77;1638284;86;21072;-62
2021/05/19 02:27:56;;;;;;;1.00;0.80;;;;;;;10.26;76.40;97205.36;1651468;86;21139;-62
2021/05/19 02:30:25;;;;;;;1.37;1.12;;;;;;;10.09;76.65;97177.22;1662333;86;21116;-62
2021/05/19 02:32:53;;;;;;;1.07;0.70;;;;;;;10.23;77.44;97206.47;1634763;85;21095;-62
2021/05/19 02:35:22;;;;;;;2.37;1.00;;;;;;;10.19;78.23;97203.89;1657855;86;21165;-61
2021/05/19 02:37:54;;;;;;;0.90;0.88;;;;;;;10.18;77.18;97202.73;1670765;85;21106;-60
2021/05/19 02:40:20;;;;;;;0.70;0.62;;;;;;;10.16;77.46;97200.30;1671997;86;21531;-60
2021/05/19 02:42:47;;;;;;;0.95;0.80;;;;;;;10.15;77.25;97198.69;1671918;86;21095;-60
2021/05/19 02:45:16;;;;;;;1.35;0.95;;;;;;;10.12;78.08;97196.84;1671314;85;21578;-61
2021/05/19 02:47:43;;;;;;;1.07;0.90;;;;;;;10.09;77.64;97192.79;1672028;84;21063;-61
2021/05/19 02:50:16;;;;;;;1.07;0.70;;;;;;;10.05;78.54;97199.27;1672130;86;21083;-62
2021/05/19 02:52:43;;;;;;;1.10;0.80;;;;;;;10.01;78.41;97196.66;1672123;86;21122;-60
2021/05/19 02:55:11;;;;;;;2.65;1.10;;;;;;;9.96;78.30;97195.83;1671898;86;21070;-61
2021/05/19 02:57:39;;;;;;;1.25;1.05;;;;;;;9.94;78.33;97200.38;1672079;86;21103;-62
2021/05/19 03:00:09;;;;;;;1.17;0.95;;;;;;;9.94;78.09;97199.08;1672043;86;21733;-63
2021/05/19 03:02:36;;;;;;;2.35;0.70;;;;;;;9.94;78.69;97195.66;1672084;84;21066;-63
2021/05/19 03:05:06;;;;;;;1.05;0.72;;;;;;;9.91;79.27;97208.95;1672159;84;21106;-62
2021/05/19 03:07:33;;;;;;;0.75;0.68;;;;;;;9.91;78.62;97208.47;1672036;86;21086;-62
2021/05/19 03:10:00;;;;;;;1.17;0.90;;;;;;;9.89;78.45;97210.39;1672137;86;21103;-62
2021/05/19 03:12:27;;;;;;;0.80;0.70;;;;;;;9.90;78.22;97217.22;1671941;84;21078;-62
2021/05/19 03:14:55;;;;;;;1.75;0.98;;;;;;;9.91;77.67;97217.55;1671941;86;21051;-62
2021/05/19 03:17:22;;;;;;;0.85;0.62;;;;;;;9.93;78.47;97217.38;1668316;86;21052;-62
2021/05/19 03:19:49;;;;;;;1.00;0.90;;;;;;;9.93;78.50;97225.97;1634987;87;21091;-62
2021/05/19 03:22:16;;;;;;;2.45;0.62;;;;;;;9.97;78.16;97233.77;1665653;84;21645;-63
2021/05/19 03:24:44;;;;;;;1.82;0.80;;;;;;;10.01;77.84;97235.08;1669488;86;21130;-63
2021/05/19 03:27:11;;;;;;;1.62;0.98;;;;;;;10.04;78.20;97230.05;1669549;86;21060;-62
2021/05/19 03:29:38;;;;;;;1.02;0.75;;;;;;;10.08;78.35;97237.06;1669693;86;21080;-63
2021/05/19 03:32:07;;;;;;;2.05;0.70;;;;;;;10.05;79.03;97236.06;1669849;86;21115;-62
2021/05/19 03:34:34;;;;;;;7.00;1.07;;;;;;;10.08;77.76;97235.77;1669205;86;21102;-63
2021/05/19 03:37:01;;;;;;;1.37;0.95;;;;;;;10.10;77.32;97238.52;1669683;86;21072;-62
2021/05/19 03:39:28;;;;;;;1.07;0.93;;;;;;;10.11;78.38;97227.67;1669567;85;21087;-63
2021/05/19 03:41:55;;;;;;;37.00;20.35;;;;;;;10.09;79.10;97234.78;1669792;86;21142;-61
2021/05/19 03:44:22;;;;;;;46.75;23.65;;;;;;;10.14;77.83;97227.34;1669802;86;21694;-64
2021/05/19 03:46:50;;;;;;;27.87;15.85;;;;;;;10.19;77.49;97227.72;1669772;86;21659;-63
2021/05/19 03:49:17;;;;;;;8.05;4.28;;;;;;;10.24;77.40;97221.55;1669671;86;21182;-64
2021/05/19 03:51:44;;;;;;;19.52;11.18;;;;;;;10.27;78.07;97223.34;1669690;86;21174;-62
2021/05/19 03:54:11;;;;;;;1.92;1.32;;;;;;;10.25;78.32;97225.78;1669567;86;21532;-63
2021/05/19 03:56:39;;;;;;;1.45;0.90;;;;;;;10.22;78.45;97223.52;1669571;86;21112;-63
2021/05/19 03:59:05;;;;;;;2.15;0.90;;;;;;;10.23;78.12;97225.14;1669673;86;21150;-63
2021/05/19 04:01:32;;;;;;;5.35;1.10;;;;;;;10.20;78.44;97226.73;1669729;86;21056;-63
2021/05/19 04:03:59;;;;;;;0.93;0.85;;;;;;;10.22;77.80;97226.92;1669618;86;21162;-62
2021/05/19 04:06:26;;;;;;;0.93;0.78;;;;;;;10.23;78.35;97227.73;1669618;86;21075;-63
2021/05/19 04:08:53;;;;;;;0.75;0.65;;;;;;;10.26;77.72;97228.71;1669585;86;21180;-62
2021/05/19 04:11:20;;;;;;;0.95;0.75;;;;;;;10.29;77.51;97236.17;1669511;86;21594;-62
2021/05/19 04:13:46;;;;;;;2.00;1.00;;;;;;;10.29;77.88;97237.47;1669592;85;21068;-63
2021/05/19 04:16:13;;;;;;;0.90;0.80;;;;;;;10.27;78.35;97242.80;1669659;86;21175;-62
2021/05/19 04:18:40;;;;;;;1.02;0.72;;;;;;;10.29;78.73;97242.66;1663241;84;21119;-62
2021/05/19 04:21:09;;;;;;;2.37;0.70;;;;;;;10.34;77.94;97241.23;1661706;86;21675;-63
2021/05/19 04:23:36;;;;;;;0.70;0.70;;;;;;;10.38;78.15;97235.23;1661367;85;21064;-62
2021/05/19 04:26:03;;;;;;;0.75;0.75;;;;;;;10.39;78.29;97232.94;1661213;86;21083;-63
2021/05/19 04:28:31;;;;;;;1.32;0.80;;;;;;;10.36;78.73;97234.08;1661204;86;21351;-67
2021/05/19 04:30:58;;;;;;;1.05;0.88;;;;;;;10.41;78.47;97234.91;1661377;86;21780;-62
2021/05/19 04:33:25;;;;;;;1.52;0.98;;;;;;;10.47;78.17;97239.45;1661460;86;21083;-62
2021/05/19 04:35:52;;;;;;;1.00;0.72;;;;;;;10.53;78.28;97237.53;1661699;84;21548;-62
2021/05/19 04:38:19;;;;;;;1.02;0.93;;;;;;;10.58;78.32;97248.26;1662392;86;21702;-62
2021/05/19 04:40:46;;;;;;;1.67;0.93;;;;;;;10.62;77.92;97239.14;1662258;86;21124;-64
2021/05/19 04:43:14;;;;;;;1.07;0.88;;;;;;;10.67;77.87;97242.09;1662180;86;21059;-62
2021/05/19 04:45:41;;;;;;;0.80;0.65;;;;;;;10.71;77.59;97245.17;1662150;86;21114;-60
2021/05/19 04:48:08;;;;;;;0.60;0.50;;;;;;;10.78;77.81;97243.55;1662451;85;21112;-63
2021/05/19 04:50:36;;;;;;;1.30;0.80;;;;;;;10.85;77.13;97242.77;1662440;84;21099;-62
2021/05/19 04:53:04;;;;;;;1.85;0.93;;;;;;;10.95;76.57;97246.49;1662623;86;21029;-62
2021/05/19 04:55:30;;;;;;;1.67;0.80;;;;;;;11.04;76.41;97255.10;1662519;86;21106;-62
2021/05/19 04:58:00;;;;;;;3.27;1.17;;;;;;;11.11;75.93;97246.98;1662582;86;21139;-63
2021/05/19 05:00:27;;;;;;;5.30;1.02;;;;;;;11.19;74.98;97249.57;1662569;84;21075;-62
2021/05/19 05:02:54;;;;;;;0.90;0.78;;;;;;;11.30;75.30;97251.34;1662715;86;21068;-63
2021/05/19 05:05:21;;;;;;;3.42;0.93;;;;;;;11.42;74.49;97255.23;1639530;86;21175;-63
2021/05/19 05:07:47;;;;;;;0.75;0.65;;;;;;;11.54;74.26;97254.89;1662390;85;21081;-65
2021/05/19 05:10:14;;;;;;;2.12;0.90;;;;;;;11.66;74.10;97255.68;1662400;84;21084;-63
2021/05/19 05:12:43;;;;;;;0.88;0.78;;;;;;;11.78;73.45;97255.68;1662393;86;21076;-63
2021/05/19 05:15:11;;;;;;;0.80;0.70;;;;;;;11.90;72.91;97257.44;1662216;84;21111;-63
2021/05/19 05:17:38;;;;;;;0.78;0.68;;;;;;;12.00;71.89;97259.34;1667352;84;21585;-62
2021/05/19 05:20:09;;;;;;;0.88;0.68;;;;;;;12.10;71.54;97258.63;1688087;85;21073;-62
2021/05/19 05:22:37;;;;;;;1.07;0.85;;;;;;;12.21;71.58;97258.77;1680795;84;21062;-64
2021/05/19 05:25:27;;;;;;;1.10;0.70;;;;;;;12.30;71.15;97259.84;1688006;84;21569;-63
2021/05/19 05:27:55;;;;;;;1.95;1.10;;;;;;;12.41;70.05;97266.48;1714156;83;21079;-64
2021/05/19 05:33:01;;;;;;;3.15;0.70;;;;;;;12.65;69.84;97277.23;1670016;85;21619;-64
2021/05/19 05:35:28;;;;;;;2.55;0.82;;;;;;;12.77;69.10;97271.95;1671160;86;21355;-64
2021/05/19 05:37:55;;;;;;;2.67;0.70;;;;;;;12.85;68.87;97274.50;1671008;86;21076;-65
2021/05/19 05:40:21;;;;;;;0.70;0.42;;;;;;;12.99;68.37;97289.89;1671455;85;21089;-66
2021/05/19 05:42:48;;;;;;;2.15;0.60;;;;;;;13.11;67.45;97291.92;1671044;86;21612;-62
2021/05/19 05:45:15;;;;;;;0.50;0.50;;;;;;;13.27;69.81;97283.98;1671878;84;21542;-63
2021/05/19 05:47:42;;;;;;;0.78;0.45;;;;;;;13.51;68.72;97286.88;1671196;86;21104;-60
2021/05/19 05:50:29;;;;;;;0.95;0.70;;;;;;;13.74;69.62;97284.20;1671161;84;21108;-62
2021/05/19 05:52:56;;;;;;;0.53;0.50;;;;;;;13.97;67.65;97281.53;1616276;87;21610;-64
2021/05/19 05:55:23;;;;;;;2.45;0.70;;;;;;;14.20;66.91;97280.94;1616228;89;21107;-64
2021/05/19 05:57:51;;;;;;;1.10;0.75;;;;;;;14.40;65.24;97287.22;1615896;87;21522;-65
2021/05/19 06:00:20;;;;;;;1.00;0.40;;;;;;;14.62;66.19;97279.77;1614283;89;21035;-64
2021/05/19 06:02:47;;;;;;;0.60;0.47;;;;;;;14.80;66.43;97275.91;1610723;89;21673;-64
2021/05/19 06:05:14;;;;;;;0.68;0.57;;;;;;;14.97;65.41;97281.22;1602485;89;21063;-64
2021/05/19 06:07:41;;;;;;;0.60;0.50;;;;;;;15.14;65.04;97281.27;1602231;89;21094;-64
2021/05/19 06:10:11;;;;;;;0.95;0.40;;;;;;;15.29;64.58;97271.53;1602101;89;21111;-63
2021/05/19 06:12:38;;;;;;;0.93;0.45;;;;;;;15.46;64.27;97270.77;1602173;89;21102;-65
2021/05/19 06:15:06;;;;;;;0.40;0.30;;;;;;;15.60;64.34;97268.08;1601858;89;21559;-65
2021/05/19 06:17:33;;;;;;;0.60;0.40;;;;;;;15.65;63.63;97272.25;1601811;89;21104;-64
2021/05/19 06:20:00;;;;;;;0.65;0.42;;;;;;;15.68;62.93;97271.05;1601945;89;21095;-64
2021/05/19 06:22:27;;;;;;;0.45;0.42;;;;;;;15.79;63.10;97273.66;1602063;89;21099;-62
2021/05/19 06:24:54;;;;;;;0.72;0.40;;;;;;;15.89;61.27;97275.42;1602225;89;21096;-63
2021/05/19 06:27:21;;;;;;;0.70;0.50;;;;;;;16.01;60.58;97282.55;1602180;89;21076;-64
2021/05/19 06:29:47;;;;;;;1.07;0.30;;;;;;;16.17;61.44;97270.95;1602236;89;21087;-64
2021/05/19 06:32:14;;;;;;;1.10;0.40;;;;;;;16.32;59.93;97269.00;1601842;89;21123;-64
2021/05/19 06:34:41;;;;;;;0.50;0.50;;;;;;;16.45;60.60;97263.83;1602151;89;21575;-63
2021/05/19 06:37:08;;;;;;;0.40;0.40;;;;;;;16.60;60.24;97277.61;1602135;89;21547;-63
2021/05/19 06:39:35;;;;;;;0.25;0.25;;;;;;;16.76;59.64;97275.14;1602078;89;21096;-63
2021/05/19 06:42:02;;;;;;;0.47;0.47;;;;;;;16.80;54.14;97271.61;1602102;89;21166;-61
2021/05/19 06:44:29;;;;;;;0.45;0.42;;;;;;;16.90;59.23;97273.34;1601991;89;21594;-62
2021/05/19 06:46:56;;;;;;;0.40;0.30;;;;;;;16.96;57.61;97276.49;1602055;89;21659;-63
2021/05/19 06:49:23;;;;;;;0.75;0.40;;;;;;;17.11;59.35;97278.92;1602192;89;21090;-64
2021/05/19 06:51:50;;;;;;;0.33;0.30;;;;;;;17.27;58.24;97281.98;1591174;89;21660;-63
2021/05/19 06:54:17;;;;;;;0.35;0.35;;;;;;;17.33;53.00;97279.04;1579276;90;21116;-64
2021/05/19 06:56:44;;;;;;;0.93;0.45;;;;;;;17.24;55.06;97281.05;1579319;90;21113;-64
2021/05/19 06:59:15;;;;;;;0.35;0.35;;;;;;;17.35;56.36;97283.06;1579181;90;21113;-64
2021/05/19 07:01:43;;;;;;;0.37;0.37;;;;;;;17.41;54.49;97284.90;1579404;91;21081;-64
2021/05/19 07:04:10;;;;;;;0.40;0.28;;;;;;;17.51;55.78;97289.73;1579183;91;21630;-63
2021/05/19 07:06:37;;;;;;;0.33;0.30;;;;;;;17.50;54.76;97287.63;1579351;89;22308;-64
2021/05/19 07:09:05;;;;;;;0.40;0.40;;;;;;;17.58;57.10;97293.72;1579328;91;21112;-63
2021/05/19 07:11:33;;;;;;;0.33;0.30;;;;;;;17.66;54.88;97286.95;1579240;89;21085;-63
2021/05/19 07:14:01;;;;;;;0.50;0.40;;;;;;;17.73;55.97;97293.00;1579082;91;21088;-64
2021/05/19 07:16:30;;;;;;;0.37;0.37;;;;;;;17.70;56.44;97292.09;1579015;89;21201;-64
2021/05/19 07:18:57;;;;;;;0.33;0.33;;;;;;;17.90;54.58;97290.23;1579120;91;22559;-64
2021/05/19 07:21:26;;;;;;;0.33;0.23;;;;;;;18.10;55.35;97286.25;1579305;91;21233;-64
2021/05/19 07:23:53;;;;;;;0.65;0.40;;;;;;;18.31;55.52;97280.23;1579241;89;21661;-64
2021/05/19 07:26:21;;;;;;;0.20;0.20;;;;;;;18.48;55.49;97280.58;1579140;91;21597;-64
2021/05/19 07:28:50;;;;;;;0.37;0.37;;;;;;;18.62;54.70;97276.90;1579312;91;21069;-61
2021/05/19 07:31:17;;;;;;;0.40;0.30;;;;;;;18.58;47.16;97274.89;1579343;91;21101;-62
2021/05/19 07:33:46;;;;;;;0.23;0.20;;;;;;;18.71;52.33;97273.02;1579309;91;21116;-62
2021/05/19 07:36:13;;;;;;;0.90;0.90;;;;;;;18.77;54.76;97276.61;1579088;90;21116;-64
2021/05/19 07:38:40;;;;;;;0.40;0.33;;;;;;;18.75;53.28;97279.98;1579253;91;21127;-64
2021/05/19 07:41:06;;;;;;;0.40;0.40;;;;;;;18.71;51.89;97279.59;1579373;90;21108;-64
2021/05/19 07:43:34;;;;;;;0.68;0.53;;;;;;;18.81;51.26;97275.98;1579280;91;21175;-64
2021/05/19 07:46:00;;;;;;;0.70;0.30;;;;;;;19.08;53.94;97267.92;1579238;90;21081;-65
2021/05/19 07:48:27;;;;;;;1.87;0.60;;;;;;;19.29;52.37;97266.27;1579203;91;21135;-64
2021/05/19 07:50:54;;;;;;;0.20;0.20;;;;;;;19.17;45.97;97263.52;1579334;89;21089;-64
2021/05/19 07:53:21;;;;;;;0.33;0.33;;;;;;;19.44;52.20;97266.78;1579166;89;21160;-64
2021/05/19 07:55:57;;;;;;;0.45;0.35;;;;;;;19.64;51.58;97256.88;1579278;90;21108;-64
2021/05/19 07:58:20;;;;;;;0.35;0.28;;;;;;;19.70;47.38;97265.22;1578392;89;21126;-64
2021/05/19 08:03:30;;;;;;;0.40;0.40;;;;;;;19.84;48.87;97269.88;1579096;91;21625;-64
2021/05/19 08:05:57;;;;;;;0.40;0.30;;;;;;;19.45;44.34;97268.91;1579310;91;21093;-63
2021/05/19 08:08:26;;;;;;;0.40;0.40;;;;;;;19.62;50.10;97275.22;1579151;90;21117;-64
2021/05/19 08:10:53;;;;;;;1.20;0.35;;;;;;;19.59;48.82;97271.20;1579261;90;21264;-64
2021/05/19 08:13:19;;;;;;;0.40;0.30;;;;;;;19.62;49.89;97276.03;1579232;91;21237;-64
2021/05/19 08:15:47;;;;;;;0.95;0.40;;;;;;;19.58;45.12;97272.22;1579262;91;21268;-62
2021/05/19 08:18:14;;;;;;;0.40;0.33;;;;;;;19.70;48.13;97276.27;1579261;90;21089;-63
2021/05/19 08:20:41;;;;;;;1.27;0.50;;;;;;;19.85;48.01;97278.05;1579151;91;21636;-62
2021/05/19 08:23:07;;;;;;;1.12;0.50;;;;;;;19.93;48.38;97273.81;1579177;91;21620;-61
2021/05/19 08:25:35;;;;;;;0.93;0.25;;;;;;;20.01;47.69;97276.67;1579236;91;21141;-62
2021/05/19 08:28:01;;;;;;;0.33;0.30;;;;;;;20.08;46.30;97268.98;1579140;90;21065;-61
2021/05/19 08:30:28;;;;;;;0.30;0.30;;;;;;;20.07;47.23;97273.98;1579147;91;21088;-64
2021/05/19 08:32:55;;;;;;;0.78;0.57;;;;;;;20.03;46.38;97266.73;1579330;91;21180;-61
2021/05/19 08:35:22;;;;;;;2.77;0.50;;;;;;;20.03;47.50;97264.91;1579014;91;21065;-61
2021/05/19 08:37:49;;;;;;;0.45;0.40;;;;;;;20.13;44.56;97269.14;1579082;91;21116;-62
2021/05/19 08:40:17;;;;;;;0.50;0.40;;;;;;;20.32;44.45;97260.74;1579093;91;21101;-62
2021/05/19 08:42:45;;;;;;;0.20;0.20;;;;;;;20.47;46.47;97259.03;1579230;91;21108;-64
2021/05/19 08:45:12;;;;;;;0.28;0.28;;;;;;;20.49;45.24;97259.63;1579342;89;21225;-64
2021/05/19 08:47:39;;;;;;;0.60;0.40;;;;;;;20.50;46.31;97263.38;1579501;90;21111;-65
2021/05/19 08:50:10;;;;;;;0.30;0.30;;;;;;;20.48;41.26;97264.10;1579252;91;21140;-64
2021/05/19 08:52:38;;;;;;;0.30;0.30;;;;;;;20.61;43.39;97258.67;1579207;89;21080;-64
2021/05/19 08:55:14;;;;;;;0.78;0.30;;;;;;;20.71;43.38;97252.33;1579304;89;21137;-64
2021/05/19 08:57:43;;;;;;;0.40;0.40;;;;;;;20.88;46.42;97264.39;1579407;89;21084;-61
2021/05/19 09:00:12;;;;;;;0.53;0.40;;;;;;;20.93;45.82;97262.40;1579184;91;22035;-62
2021/05/19 09:02:39;;;;;;;0.40;0.40;;;;;;;20.97;43.72;97261.70;1579179;89;21204;-62
2021/05/19 09:05:08;;;;;;;2.30;0.50;;;;;;;21.01;44.36;97264.19;1579181;91;21148;-61
2021/05/19 09:07:37;;;;;;;0.30;0.30;;;;;;;21.06;43.50;97271.43;1579304;90;21077;-62
2021/05/19 09:10:18;;;;;;;1.27;0.30;;;;;;;21.09;40.63;97267.02;1579072;91;21101;-61
2021/05/19 09:12:45;;;;;;;0.45;0.33;;;;;;;21.12;44.43;97263.47;1579178;90;21124;-62
2021/05/19 09:15:13;;;;;;;0.40;0.40;;;;;;;20.99;40.77;97266.26;1579144;91;21673;-64
2021/05/19 09:17:41;;;;;;;0.60;0.47;;;;;;;21.32;42.41;97260.52;1579271;91;21076;-64
2021/05/19 09:20:15;;;;;;;0.40;0.40;;;;;;;21.51;43.72;97255.95;1579206;91;21172;-64
2021/05/19 09:22:45;;;;;;;0.70;0.37;;;;;;;21.62;44.01;97263.88;1579342;89;21660;-64
2021/05/19 09:25:26;;;;;;;0.47;0.40;;;;;;;21.68;42.28;97266.10;1579278;91;21081;-64
2021/05/19 09:28:00;;;;;;;0.65;0.40;;;;;;;21.56;37.67;97258.69;1579339;91;21219;-64
2021/05/19 09:30:45;;;;;;;0.37;0.37;;;;;;;21.72;38.75;97264.61;1579429;91;21089;-61
2021/05/19 09:33:24;;;;;;;1.27;0.50;;;;;;;21.79;37.76;97260.00;1579393;89;21177;-63
2021/05/19 09:36:20;;;;;;;0.30;0.30;;;;;;;21.89;42.52;97262.89;1579339;88;21637;-64
2021/05/19 09:38:53;;;;;;;0.30;0.30;;;;;;;21.94;39.36;97261.72;1580438;91;21065;-65
2021/05/19 09:41:32;;;;;;;0.40;0.40;;;;;;;22.04;38.50;97259.28;1580367;90;21089;-65
2021/05/19 09:44:01;;;;;;;0.45;0.40;;;;;;;22.21;38.32;97254.90;1579717;91;21088;-64
2021/05/19 09:49:21;;;;;;;0.82;0.50;;;;;;;22.60;39.96;97255.13;1579454;90;21069;-65
2021/05/19 09:51:57;;;;;;;1.25;0.55;;;;;;;22.63;37.25;97256.78;1579463;89;21174;-65
2021/05/19 09:54:29;;;;;;;;;;;;;;;22.51;34.65;97256.02;1581986;91;21105;-64
2021/05/19 09:57:06;;;;;;;0.40;0.40;;;;;;;22.67;35.04;97250.50;1579497;91;20187;-65
2021/05/19 09:59:34;;;;;;;0.40;0.40;;;;;;;22.85;33.94;97243.70;1579186;89;21128;-65
2021/05/19 10:02:03;;;;;;;2.30;0.50;;;;;;;23.15;41.26;97244.77;1579369;89;21454;-65
2021/05/19 10:04:37;;;;;;;0.68;0.50;;;;;;;23.36;33.05;97239.26;1579263;89;21110;-64
2021/05/19 10:07:06;;;;;;;2.92;0.53;;;;;;;23.58;35.67;97240.96;1578956;91;21188;-64
2021/05/19 10:09:33;;;;;;;0.40;0.40;;;;;;;24.09;32.05;97229.73;1579257;90;21065;-65
2021/05/19 10:12:00;;;;;;;0.65;0.65;;;;;;;24.44;33.80;97227.54;1579263;91;21084;-65
2021/05/19 10:14:28;;;;;;;0.45;0.45;;;;;;;24.37;30.32;97219.49;1579268;89;21186;-65
2021/05/19 10:17:08;;;;;;;0.40;0.35;;;;;;;24.91;38.27;97221.68;1579875;91;21084;-65
2021/05/19 10:19:46;;;;;;;0.75;0.40;;;;;;;24.66;29.61;97224.06;1579899;91;21068;-65
2021/05/19 10:22:16;;;;;;;0.47;0.40;;;;;;;24.83;34.59;97230.06;1579322;90;21060;-65
2021/05/19 10:25:14;;;;;;;;;;;;;;;;;;;;;
2021/05/19 10:27:56;;;;;;;0.53;0.50;;;;;;;25.11;32.84;97221.06;1632446;87;21470;-65
2021/05/19 10:30:47;;;;;;;0.50;0.50;;;;;;;25.15;31.59;97204.89;1627872;87;21063;-65
2021/05/19 10:33:43;;;;;;;0.60;0.50;;;;;;;25.03;31.65;97208.52;1633866;86;21087;-65
2021/05/19 10:36:36;;;;;;;0.65;0.60;;;;;;;24.74;31.95;97205.84;1664773;85;21071;-65
2021/05/19 10:39:14;;;;;;;4.12;0.98;;;;;;;24.68;32.44;97197.53;1658110;86;21075;-65
2021/05/19 10:41:49;;;;;;;0.60;0.60;;;;;;;24.31;32.37;97189.98;1658164;86;21107;-65
2021/05/19 10:44:29;;;;;;;0.42;0.40;;;;;;;24.91;36.15;97196.45;1658077;85;21071;-65
2021/05/19 10:47:15;;;;;;;0.72;0.40;;;;;;;25.39;35.30;97193.66;1657982;86;21150;-64
2021/05/19 11:01:09;;;;;;;0.50;0.50;;;;;;;25.87;31.23;97179.89;1657302;85;21095;-64
2021/05/19 11:03:38;;;;;;;2.25;0.55;;;;;;;25.67;28.03;97183.24;1657931;85;21177;-64
2021/05/19 11:06:09;;;;;;;1.05;0.50;;;;;;;25.56;30.47;97171.47;1658026;85;21075;-64
2021/05/19 11:08:39;;;;;;;0.50;0.50;;;;;;;25.76;32.28;97175.03;1658128;85;21043;-64
2021/05/19 11:11:23;;;;;;;1.05;0.40;;;;;;;25.48;28.04;97178.05;1659925;86;21055;-65
2021/05/19 11:14:28;;;;;;;0.85;0.53;;;;;;;25.49;28.47;97171.65;1657902;86;21063;-64
2021/05/19 11:17:15;;;;;;;0.40;0.40;;;;;;;25.74;30.01;97178.48;1655483;86;21235;-64
2021/05/19 11:19:34;;;;;;;0.20;0.20;;;;;;;26.08;30.83;97180.23;1649495;86;21078;-64
2021/05/19 11:22:12;;;;;;;0.30;0.30;;;;;;;26.15;30.71;97172.00;1657908;86;21111;-64
2021/05/19 11:24:52;;;;;;;0.75;0.40;;;;;;;26.20;27.55;97179.52;1658119;86;21146;-63
2021/05/19 11:27:23;;;;;;;0.30;0.30;;;;;;;26.10;27.97;97178.66;1636942;86;21825;-64
2021/05/19 11:29:50;;;;;;;0.60;0.40;;;;;;;26.37;31.23;97180.64;1658006;86;21142;-64
2021/05/19 11:32:29;;;;;;;0.40;0.30;;;;;;;26.09;28.03;97174.39;1657943;86;21178;-63
2021/05/19 11:35:18;;;;;;;0.30;0.30;;;;;;;26.48;27.96;97174.28;1657908;85;21155;-64
2021/05/19 11:38:06;;;;;;;0.30;0.30;;;;;;;26.85;26.81;97172.23;1657938;86;21091;-64
2021/05/19 11:40:51;;;;;;;0.40;0.40;;;;;;;26.44;26.83;97172.67;1657936;85;21138;-64
2021/05/19 11:43:20;;;;;;;2.67;0.40;;;;;;;27.05;30.08;97180.77;1658312;85;21082;-64
2021/05/19 11:45:57;;;;;;;2.05;0.98;;;;;;;27.43;30.73;97174.06;1657887;85;21078;-64
2021/05/19 11:48:28;;;;;;;0.88;0.60;;;;;;;27.62;28.20;97165.02;1657875;86;21047;-64
2021/05/19 11:50:56;;;;;;;1.40;0.60;;;;;;;26.96;26.17;97165.59;1657941;86;21086;-64
2021/05/19 11:53:24;;;;;;;0.85;0.60;;;;;;;26.43;26.83;97164.94;1657935;85;21067;-64
2021/05/19 11:55:53;;;;;;;0.55;0.40;;;;;;;26.03;27.13;97161.58;1658087;86;21055;-64
2021/05/19 11:58:29;;;;;;;1.55;0.68;;;;;;;25.92;30.51;97162.08;1657907;85;21197;-64
2021/05/19 12:01:06;;;;;;;0.78;0.40;;;;;;;25.67;27.92;97162.50;1658123;86;21158;-64
2021/05/19 12:03:36;;;;;;;0.98;0.57;;;;;;;25.60;29.83;97159.27;1657844;85;21598;-64
2021/05/19 12:06:07;;;;;;;0.70;0.62;;;;;;;25.56;28.44;97166.96;1657952;86;21116;-64
2021/05/19 12:08:40;;;;;;;0.78;0.70;;;;;;;25.38;27.98;97164.14;1657906;86;21187;-64
2021/05/19 12:11:20;;;;;;;1.20;0.95;;;;;;;24.42;29.28;97159.33;1657956;86;22220;-64